Time;durP1;ratioP1;P1;durP2;ratioP2;P2;SDS_P1;SDS_P2;PMS_P1;PMS_P2;Temp;Humidity;BMP_temperature;BMP_pressure;BME280_temperature;BME280_humidity;BME280_pressure;Samples;Min_cycle;Max_cycle;Signal;HPM_P1;HPM_P2
2023/05/16 00:02:01;;;;;;;6.20;4.68;;;;;;;;;;5074746;28;20055;-77
2023/05/16 00:04:27;;;;;;;6.28;4.25;;;;;;;;;;5075327;28;20056;-79
2023/05/16 00:06:55;;;;;;;6.88;4.43;;;;;;;;;;5075186;28;20505;-77
2023/05/16 00:09:22;;;;;;;7.57;4.72;;;;;;;;;;5074524;28;20040;-76
2023/05/16 00:11:49;;;;;;;5.90;4.28;;;;;;;;;;5074684;28;20048;-76
2023/05/16 00:14:15;;;;;;;6.43;4.00;;;;;;;;;;5074851;28;20049;-80
2023/05/16 00:16:42;;;;;;;6.00;4.35;;;;;;;;;;5083850;28;20029;-75
2023/05/16 00:19:09;;;;;;;6.82;4.25;;;;;;;;;;5098555;28;20104;-74
2023/05/16 00:21:35;;;;;;;5.85;4.07;;;;;;;;;;5091547;28;20179;-78
2023/05/16 00:24:04;;;;;;;6.53;4.75;;;;;;;;;;5081177;28;20055;-77
2023/05/16 00:26:31;;;;;;;6.43;4.75;;;;;;;;;;5076530;28;20049;-78
2023/05/16 00:28:57;;;;;;;7.63;5.00;;;;;;;;;;5076461;28;20127;-77
2023/05/16 00:31:24;;;;;;;6.88;4.72;;;;;;;;;;5077213;28;20510;-78
2023/05/16 00:33:51;;;;;;;6.97;4.88;;;;;;;;;;5077501;28;20058;-79
2023/05/16 00:36:17;;;;;;;7.18;5.00;;;;;;;;;;5077104;28;20055;-78
2023/05/16 00:38:44;;;;;;;7.05;4.97;;;;;;;;;;5077609;28;20078;-78
2023/05/16 00:41:12;;;;;;;7.75;5.03;;;;;;;;;;5077169;28;20044;-77
2023/05/16 00:43:39;;;;;;;6.32;4.68;;;;;;;;;;5077399;28;20053;-79
2023/05/16 00:46:06;;;;;;;6.28;4.60;;;;;;;;;;5078537;28;20054;-78
2023/05/16 00:48:33;;;;;;;8.23;5.00;;;;;;;;;;5077493;28;20071;-79
2023/05/16 00:51:01;;;;;;;6.93;5.53;;;;;;;;;;5078875;28;20106;-79
2023/05/16 00:53:28;;;;;;;6.68;4.50;;;;;;;;;;5077997;28;20052;-79
2023/05/16 00:55:56;;;;;;;6.68;4.72;;;;;;;;;;5079482;28;20578;-79
2023/05/16 00:58:24;;;;;;;6.25;4.40;;;;;;;;;;5079508;28;20104;-78
2023/05/16 01:00:52;;;;;;;6.63;4.70;;;;;;;;;;5080179;28;20048;-77
2023/05/16 01:03:18;;;;;;;7.35;5.32;;;;;;;;;;5064040;28;20460;-77
2023/05/16 01:05:46;;;;;;;8.73;4.35;;;;;;;;;;5057676;28;20156;-77
2023/05/16 01:08:13;;;;;;;7.40;4.88;;;;;;;;;;5057568;28;20055;-79
2023/05/16 01:10:49;;;;;;;6.00;4.35;;;;;;;;;;5057414;28;20137;-77
2023/05/16 01:13:27;;;;;;;7.18;4.82;;;;;;;;;;5057489;28;20131;-79
2023/05/16 01:16:02;;;;;;;7.07;5.15;;;;;;;;;;5056475;28;20041;-78
2023/05/16 01:18:37;;;;;;;7.65;4.97;;;;;;;;;;5056632;28;20087;-76
2023/05/16 01:21:09;;;;;;;6.65;4.82;;;;;;;;;;5057303;28;20128;-78
2023/05/16 01:23:47;;;;;;;8.70;5.72;;;;;;;;;;5057214;28;20108;-78
2023/05/16 01:26:19;;;;;;;6.85;4.82;;;;;;;;;;5056966;28;20055;-77
2023/05/16 01:28:46;;;;;;;6.68;4.82;;;;;;;;;;5058264;28;20435;-77
2023/05/16 01:31:13;;;;;;;7.40;4.88;;;;;;;;;;5056897;28;20590;-78
2023/05/16 01:33:40;;;;;;;6.78;5.10;;;;;;;;;;5058888;28;20048;-78
2023/05/16 01:36:13;;;;;;;6.72;5.03;;;;;;;;;;5058612;28;20052;-77
2023/05/16 01:38:57;;;;;;;6.43;4.90;;;;;;;;;;5058177;28;20059;-78
2023/05/16 01:41:31;;;;;;;6.97;5.05;;;;;;;;;;5058603;28;20068;-79
2023/05/16 01:44:01;;;;;;;8.02;5.03;;;;;;;;;;5058606;28;20563;-78
2023/05/16 01:46:33;;;;;;;7.78;5.60;;;;;;;;;;5059062;28;20052;-77
2023/05/16 01:49:15;;;;;;;13.45;9.98;;;;;;;;;;5058060;28;20136;-77
2023/05/16 01:51:45;;;;;;;8.95;6.78;;;;;;;;;;5058290;28;20057;-78
2023/05/16 01:54:13;;;;;;;6.53;5.23;;;;;;;;;;5058641;28;20045;-78
2023/05/16 01:56:50;;;;;;;8.00;5.90;;;;;;;;;;5056967;28;20049;-77
2023/05/16 01:59:17;;;;;;;8.68;6.10;;;;;;;;;;5056238;28;20136;-78
2023/05/16 02:01:44;;;;;;;9.15;5.88;;;;;;;;;;5058689;28;20128;-78
2023/05/16 02:04:12;;;;;;;7.22;5.55;;;;;;;;;;5058521;28;20057;-78
2023/05/16 02:06:38;;;;;;;8.32;6.45;;;;;;;;;;5057885;28;20053;-77
2023/05/16 02:09:05;;;;;;;8.18;6.00;;;;;;;;;;5057530;28;20078;-77
2023/05/16 02:11:32;;;;;;;7.45;5.13;;;;;;;;;;5056792;28;20045;-78
2023/05/16 02:14:00;;;;;;;8.70;6.22;;;;;;;;;;5058204;28;20132;-78
2023/05/16 02:16:26;;;;;;;7.85;5.90;;;;;;;;;;5057398;28;20064;-77
2023/05/16 02:18:53;;;;;;;9.07;6.15;;;;;;;;;;5056666;28;20045;-78
2023/05/16 02:21:20;;;;;;;7.43;6.32;;;;;;;;;;5056822;28;20104;-78
2023/05/16 02:23:46;;;;;;;8.95;5.72;;;;;;;;;;5056407;28;20098;-77
2023/05/16 02:26:13;;;;;;;8.82;5.82;;;;;;;;;;5056618;28;20049;-76
2023/05/16 02:28:40;;;;;;;8.45;5.60;;;;;;;;;;5056625;28;20189;-79
2023/05/16 02:31:08;;;;;;;7.68;5.60;;;;;;;;;;5055943;28;20499;-77
2023/05/16 02:33:34;;;;;;;7.95;5.55;;;;;;;;;;5055803;28;20084;-77
2023/05/16 02:36:01;;;;;;;7.97;5.80;;;;;;;;;;5056080;28;20049;-77
2023/05/16 02:38:28;;;;;;;8.50;6.38;;;;;;;;;;5056648;28;20140;-77
2023/05/16 02:40:54;;;;;;;9.30;5.63;;;;;;;;;;5057683;28;20459;-78
2023/05/16 02:43:21;;;;;;;8.00;5.68;;;;;;;;;;5058605;28;20128;-78
2023/05/16 02:45:47;;;;;;;8.00;6.07;;;;;;;;;;5059096;28;20117;-78
2023/05/16 02:48:15;;;;;;;8.18;5.53;;;;;;;;;;5060131;28;20109;-77
2023/05/16 02:50:42;;;;;;;9.27;6.20;;;;;;;;;;5059415;28;20049;-76
2023/05/16 02:53:09;;;;;;;8.23;5.78;;;;;;;;;;5059294;28;20738;-77
2023/05/16 02:55:36;;;;;;;7.82;5.80;;;;;;;;;;5060238;28;20063;-77
2023/05/16 02:58:02;;;;;;;9.02;6.57;;;;;;;;;;5056306;28;20055;-76
2023/05/16 03:00:30;;;;;;;8.27;5.72;;;;;;;;;;5056573;28;20387;-77
2023/05/16 03:02:57;;;;;;;9.30;6.50;;;;;;;;;;5046106;28;20128;-76
2023/05/16 03:05:25;;;;;;;8.07;6.00;;;;;;;;;;5037858;28;20045;-76
2023/05/16 03:07:51;;;;;;;8.57;5.57;;;;;;;;;;5036459;28;20061;-77
2023/05/16 03:10:18;;;;;;;8.07;6.07;;;;;;;;;;5038502;28;20084;-77
2023/05/16 03:12:45;;;;;;;8.63;6.50;;;;;;;;;;5038019;28;20084;-77
2023/05/16 03:15:11;;;;;;;9.00;6.75;;;;;;;;;;5038551;28;20402;-77
2023/05/16 03:17:38;;;;;;;8.75;5.78;;;;;;;;;;5037468;28;20136;-76
2023/05/16 03:20:07;;;;;;;7.95;6.03;;;;;;;;;;5037544;28;20573;-77
2023/05/16 03:22:35;;;;;;;9.13;6.40;;;;;;;;;;5041199;28;20111;-78
2023/05/16 03:25:03;;;;;;;7.22;5.68;;;;;;;;;;5049453;28;20057;-77
2023/05/16 03:27:29;;;;;;;8.40;6.60;;;;;;;;;;5042881;28;20493;-77
2023/05/16 03:29:56;;;;;;;9.38;6.70;;;;;;;;;;5045900;28;20060;-77
2023/05/16 03:32:23;;;;;;;9.02;5.90;;;;;;;;;;5039323;28;20045;-77
2023/05/16 03:34:49;;;;;;;10.30;6.72;;;;;;;;;;5035204;28;20049;-77
2023/05/16 03:37:16;;;;;;;9.65;6.50;;;;;;;;;;5037342;28;20128;-76
2023/05/16 03:39:44;;;;;;;8.68;6.70;;;;;;;;;;5037261;28;20049;-77
2023/05/16 03:42:10;;;;;;;9.25;6.95;;;;;;;;;;5038122;28;20115;-77
2023/05/16 03:44:37;;;;;;;9.38;7.00;;;;;;;;;;5044774;28;20515;-77
2023/05/16 03:47:05;;;;;;;9.55;6.85;;;;;;;;;;5046820;28;20053;-77
2023/05/16 03:49:31;;;;;;;9.45;6.72;;;;;;;;;;5037987;28;20045;-77
2023/05/16 03:51:58;;;;;;;10.32;7.65;;;;;;;;;;5038898;28;20041;-77
2023/05/16 03:54:25;;;;;;;9.95;6.75;;;;;;;;;;5040222;28;20559;-77
2023/05/16 03:56:53;;;;;;;11.70;7.93;;;;;;;;;;5042984;28;20080;-77
2023/05/16 03:59:19;;;;;;;9.70;7.32;;;;;;;;;;5046261;28;20072;-77
2023/05/16 04:01:46;;;;;;;10.20;7.05;;;;;;;;;;5043089;28;20053;-77
2023/05/16 04:04:13;;;;;;;9.75;7.03;;;;;;;;;;5062146;28;20072;-77
2023/05/16 04:06:40;;;;;;;13.38;7.55;;;;;;;;;;5061533;28;20045;-76
2023/05/16 04:09:06;;;;;;;11.32;8.20;;;;;;;;;;5062826;28;20116;-77
2023/05/16 04:11:33;;;;;;;11.07;7.70;;;;;;;;;;5063400;28;20049;-77
2023/05/16 04:14:01;;;;;;;9.95;6.72;;;;;;;;;;5062370;28;20131;-77
2023/05/16 04:16:28;;;;;;;9.57;7.43;;;;;;;;;;5070705;28;20498;-78
2023/05/16 04:18:55;;;;;;;10.07;7.60;;;;;;;;;;5070036;28;20075;-77
2023/05/16 04:21:22;;;;;;;10.23;6.97;;;;;;;;;;5067901;28;20048;-76
2023/05/16 04:23:49;;;;;;;8.85;6.57;;;;;;;;;;5067436;28;20080;-76
2023/05/16 04:26:15;;;;;;;10.27;7.40;;;;;;;;;;5083288;22;20080;-78
2023/05/16 04:28:42;;;;;;;11.32;7.80;;;;;;;;;;5097232;28;20048;-77
2023/05/16 04:31:10;;;;;;;10.63;7.60;;;;;;;;;;5097665;28;20070;-77
2023/05/16 04:33:36;;;;;;;11.88;7.38;;;;;;;;;;5103850;28;20054;-77
2023/05/16 04:36:04;;;;;;;10.65;7.82;;;;;;;;;;5100056;28;20131;-76
2023/05/16 04:38:31;;;;;;;11.38;7.45;;;;;;;;;;5077854;28;20443;-76
2023/05/16 04:40:58;;;;;;;11.10;7.28;;;;;;;;;;5077990;28;20112;-76
2023/05/16 04:43:24;;;;;;;9.85;7.38;;;;;;;;;;5076775;28;20124;-77
2023/05/16 04:45:52;;;;;;;11.95;8.00;;;;;;;;;;5077184;28;20124;-77
2023/05/16 04:48:20;;;;;;;11.32;8.32;;;;;;;;;;5076987;28;20048;-77
2023/05/16 04:50:47;;;;;;;11.98;7.70;;;;;;;;;;5076672;28;20052;-77
2023/05/16 04:53:14;;;;;;;10.57;7.30;;;;;;;;;;5076656;28;20127;-77
2023/05/16 04:55:40;;;;;;;10.73;7.53;;;;;;;;;;5076323;28;20057;-76
2023/05/16 04:58:07;;;;;;;11.27;8.68;;;;;;;;;;5076297;28;20113;-77
2023/05/16 05:00:34;;;;;;;10.98;7.32;;;;;;;;;;5077576;28;20053;-78
2023/05/16 05:03:01;;;;;;;12.85;8.88;;;;;;;;;;5076817;28;20052;-77
2023/05/16 05:05:29;;;;;;;11.05;7.95;;;;;;;;;;5075631;28;20057;-77
2023/05/16 05:07:58;;;;;;;12.95;8.50;;;;;;;;;;5076009;28;20135;-78
2023/05/16 05:10:26;;;;;;;11.77;8.25;;;;;;;;;;5075865;28;20091;-77
2023/05/16 05:12:53;;;;;;;14.02;8.65;;;;;;;;;;5075738;28;20518;-77
2023/05/16 05:15:19;;;;;;;11.93;8.05;;;;;;;;;;5075586;28;20123;-78
2023/05/16 05:17:46;;;;;;;11.55;8.10;;;;;;;;;;5075570;28;20048;-78
2023/05/16 05:20:13;;;;;;;13.07;8.48;;;;;;;;;;5075406;28;20108;-77
2023/05/16 05:22:41;;;;;;;11.43;8.50;;;;;;;;;;5075031;28;20133;-77
2023/05/16 05:25:08;;;;;;;12.48;8.25;;;;;;;;;;5075218;28;20051;-77
2023/05/16 05:27:35;;;;;;;11.02;8.27;;;;;;;;;;5074887;28;20080;-77
2023/05/16 05:30:02;;;;;;;11.80;8.23;;;;;;;;;;5075388;28;20131;-77
2023/05/16 05:32:28;;;;;;;11.45;8.25;;;;;;;;;;5075374;28;20045;-78
2023/05/16 05:34:55;;;;;;;11.90;8.27;;;;;;;;;;5075261;28;20585;-78
2023/05/16 05:37:22;;;;;;;13.75;9.55;;;;;;;;;;5074788;28;20045;-78
2023/05/16 05:39:50;;;;;;;12.20;8.48;;;;;;;;;;5074804;28;20040;-78
2023/05/16 05:42:16;;;;;;;12.43;8.98;;;;;;;;;;5075934;28;20128;-78
2023/05/16 05:44:43;;;;;;;11.25;8.52;;;;;;;;;;5075754;28;20559;-78
2023/05/16 05:47:10;;;;;;;12.13;8.90;;;;;;;;;;5075362;28;20079;-78
2023/05/16 05:49:37;;;;;;;11.63;8.95;;;;;;;;;;5075730;28;20049;-77
2023/05/16 05:52:04;;;;;;;12.45;9.25;;;;;;;;;;5075360;28;20053;-78
2023/05/16 05:54:31;;;;;;;13.10;9.25;;;;;;;;;;5075476;28;20053;-77
2023/05/16 05:56:59;;;;;;;11.85;8.82;;;;;;;;;;5075387;28;20056;-78
2023/05/16 05:59:26;;;;;;;14.43;9.32;;;;;;;;;;5075501;28;20104;-78
2023/05/16 06:01:53;;;;;;;11.40;8.30;;;;;;;;;;5075461;28;20747;-78
2023/05/16 06:04:19;;;;;;;14.13;9.30;;;;;;;;;;5075052;28;20128;-78
2023/05/16 06:06:46;;;;;;;13.07;9.07;;;;;;;;;;5075422;28;20434;-78
2023/05/16 06:09:13;;;;;;;16.33;10.70;;;;;;;;;;5074863;28;20048;-78
2023/05/16 06:11:40;;;;;;;15.20;10.52;;;;;;;;;;5076667;28;20418;-78
2023/05/16 06:14:09;;;;;;;21.63;13.40;;;;;;;;;;5079137;28;20052;-78
2023/05/16 06:16:38;;;;;;;15.98;10.73;;;;;;;;;;5079372;28;20048;-79
2023/05/16 06:19:08;;;;;;;22.13;11.55;;;;;;;;;;5081832;28;20092;-77
2023/05/16 06:21:34;;;;;;;17.60;10.52;;;;;;;;;;5075144;28;20577;-76
2023/05/16 06:24:02;;;;;;;14.18;10.32;;;;;;;;;;5077043;28;20127;-78
2023/05/16 06:26:28;;;;;;;15.35;9.90;;;;;;;;;;5079233;28;20044;-77
2023/05/16 06:28:55;;;;;;;14.90;10.82;;;;;;;;;;5077873;28;20054;-78
2023/05/16 06:31:23;;;;;;;14.48;10.13;;;;;;;;;;5076868;28;20044;-77
2023/05/16 06:33:50;;;;;;;13.65;9.73;;;;;;;;;;5076668;28;20052;-77
2023/05/16 06:36:16;;;;;;;15.60;10.48;;;;;;;;;;5077055;28;20041;-78
2023/05/16 06:38:43;;;;;;;14.10;10.13;;;;;;;;;;5076305;28;20063;-78
2023/05/16 06:41:10;;;;;;;13.95;9.85;;;;;;;;;;5078593;28;20147;-78
2023/05/16 06:43:36;;;;;;;15.88;12.02;;;;;;;;;;5076931;28;20055;-77
2023/05/16 06:46:03;;;;;;;13.65;9.93;;;;;;;;;;5078859;28;20470;-77
2023/05/16 06:48:31;;;;;;;14.50;10.05;;;;;;;;;;5079521;28;20106;-77
2023/05/16 06:50:58;;;;;;;13.07;9.57;;;;;;;;;;5079873;28;20064;-77
2023/05/16 06:53:25;;;;;;;14.02;10.15;;;;;;;;;;5074702;28;20041;-77
2023/05/16 06:55:52;;;;;;;13.38;9.95;;;;;;;;;;5077358;28;20059;-77
2023/05/16 06:58:18;;;;;;;14.10;9.85;;;;;;;;;;5084943;28;20121;-77
2023/05/16 07:00:45;;;;;;;14.70;9.10;;;;;;;;;;5084518;28;20055;-77
2023/05/16 07:03:11;;;;;;;13.55;10.48;;;;;;;;;;5083433;28;20044;-77
2023/05/16 07:05:40;;;;;;;12.23;9.98;;;;;;;;;;5077225;28;20044;-77
2023/05/16 07:08:08;;;;;;;12.85;10.02;;;;;;;;;;5082726;28;20596;-77
2023/05/16 07:10:35;;;;;;;14.23;10.27;;;;;;;;;;5083639;28;20075;-78
2023/05/16 07:13:03;;;;;;;12.88;9.57;;;;;;;;;;5083706;28;20075;-77
2023/05/16 07:15:30;;;;;;;15.15;11.05;;;;;;;;;;5084088;28;20083;-77
2023/05/16 07:17:57;;;;;;;17.23;12.05;;;;;;;;;;5083668;28;20074;-77
2023/05/16 07:20:24;;;;;;;13.88;9.90;;;;;;;;;;5080494;28;20072;-77
2023/05/16 07:22:52;;;;;;;15.00;10.38;;;;;;;;;;5074678;28;20071;-77
2023/05/16 07:25:18;;;;;;;13.93;10.20;;;;;;;;;;5074372;28;20566;-78
2023/05/16 07:27:45;;;;;;;13.52;10.35;;;;;;;;;;5073906;28;20048;-77
2023/05/16 07:30:13;;;;;;;13.88;10.43;;;;;;;;;;5074846;28;20139;-77
2023/05/16 07:32:40;;;;;;;13.80;10.50;;;;;;;;;;5074199;28;20518;-77
2023/05/16 07:35:08;;;;;;;14.65;10.68;;;;;;;;;;5074207;28;20045;-77
2023/05/16 07:37:35;;;;;;;12.10;9.77;;;;;;;;;;5074722;28;20117;-77
2023/05/16 07:40:04;;;;;;;12.43;10.13;;;;;;;;;;5075438;28;20056;-77
2023/05/16 07:42:31;;;;;;;12.88;9.30;;;;;;;;;;5074398;28;20515;-77
2023/05/16 07:44:58;;;;;;;13.88;10.85;;;;;;;;;;5074748;28;20558;-77
2023/05/16 07:47:24;;;;;;;14.32;10.10;;;;;;;;;;5074293;28;20131;-77
2023/05/16 07:49:51;;;;;;;13.23;10.63;;;;;;;;;;5073684;28;20076;-77
2023/05/16 07:52:18;;;;;;;13.07;10.02;;;;;;;;;;5074583;28;20044;-78
2023/05/16 07:54:46;;;;;;;17.70;10.70;;;;;;;;;;5074360;28;20048;-77
2023/05/16 07:57:15;;;;;;;13.98;10.00;;;;;;;;;;5075040;28;20388;-77
2023/05/16 07:59:42;;;;;;;14.32;10.90;;;;;;;;;;5075400;28;20055;-77
2023/05/16 08:02:09;;;;;;;17.10;11.73;;;;;;;;;;5074230;28;20045;-76
2023/05/16 08:04:36;;;;;;;13.52;10.38;;;;;;;;;;5074512;28;20048;-76
2023/05/16 08:07:03;;;;;;;13.85;10.65;;;;;;;;;;5073524;28;20130;-78
2023/05/16 08:09:30;;;;;;;15.20;11.00;;;;;;;;;;5075710;28;20128;-77
2023/05/16 08:11:56;;;;;;;14.75;11.15;;;;;;;;;;5075677;28;20106;-77
2023/05/16 08:14:24;;;;;;;13.45;10.68;;;;;;;;;;5075354;28;20072;-77
2023/05/16 08:16:51;;;;;;;13.45;10.32;;;;;;;;;;5073352;28;20128;-77
2023/05/16 08:19:18;;;;;;;14.20;10.07;;;;;;;;;;5075126;28;20131;-77
2023/05/16 08:21:44;;;;;;;17.50;10.90;;;;;;;;;;5075144;28;20049;-77
2023/05/16 08:24:11;;;;;;;13.40;9.90;;;;;;;;;;5074618;28;20465;-77
2023/05/16 08:26:37;;;;;;;15.35;11.73;;;;;;;;;;5074825;28;20055;-77
2023/05/16 08:29:04;;;;;;;15.05;11.65;;;;;;;;;;5074286;28;20132;-77
2023/05/16 08:31:32;;;;;;;12.30;9.82;;;;;;;;;;5074709;28;20045;-77
2023/05/16 08:34:00;;;;;;;13.25;10.10;;;;;;;;;;5076196;28;20135;-77
2023/05/16 08:36:27;;;;;;;15.38;11.88;;;;;;;;;;5075951;28;20048;-77
2023/05/16 08:38:55;;;;;;;14.15;11.07;;;;;;;;;;5076032;28;20083;-77
2023/05/16 08:41:21;;;;;;;16.95;12.32;;;;;;;;;;5078538;28;20060;-77
2023/05/16 08:43:48;;;;;;;14.18;11.07;;;;;;;;;;5078280;28;20479;-77
2023/05/16 08:46:18;;;;;;;15.45;11.63;;;;;;;;;;5078176;28;20132;-77
2023/05/16 08:48:47;;;;;;;14.60;11.38;;;;;;;;;;5077777;28;20060;-77
2023/05/16 08:51:17;;;;;;;15.00;11.80;;;;;;;;;;5077846;28;20131;-78
2023/05/16 08:53:50;;;;;;;14.70;11.52;;;;;;;;;;5077760;28;20045;-77
2023/05/16 08:56:18;;;;;;;13.52;10.30;;;;;;;;;;5077963;28;20503;-77
2023/05/16 08:58:45;;;;;;;13.50;10.48;;;;;;;;;;5078319;28;20056;-77
2023/05/16 09:01:12;;;;;;;15.18;11.85;;;;;;;;;;5078059;28;20071;-77
2023/05/16 09:03:39;;;;;;;13.73;9.60;;;;;;;;;;5077938;28;20050;-77
2023/05/16 09:06:07;;;;;;;14.98;11.43;;;;;;;;;;5078142;28;20055;-77
2023/05/16 09:08:34;;;;;;;14.43;11.27;;;;;;;;;;5077459;28;20140;-78
2023/05/16 09:11:02;;;;;;;15.05;11.35;;;;;;;;;;5077580;28;20180;-77
2023/05/16 09:13:28;;;;;;;14.32;11.05;;;;;;;;;;5078056;28;20460;-78
2023/05/16 09:16:12;;;;;;;15.20;11.35;;;;;;;;;;5076762;28;20055;-78
2023/05/16 09:18:39;;;;;;;16.63;11.32;;;;;;;;;;5076394;28;20162;-77
2023/05/16 09:21:07;;;;;;;15.43;11.20;;;;;;;;;;5077417;28;20048;-77
2023/05/16 09:23:34;;;;;;;15.52;12.85;;;;;;;;;;5081436;28;20083;-77
2023/05/16 09:26:01;;;;;;;16.17;12.90;;;;;;;;;;5089184;28;20514;-77
2023/05/16 09:28:28;;;;;;;13.52;11.30;;;;;;;;;;5079753;28;20116;-77
2023/05/16 09:30:57;;;;;;;15.77;12.50;;;;;;;;;;5078404;28;20112;-77
2023/05/16 09:33:26;;;;;;;15.60;12.25;;;;;;;;;;5078465;28;20044;-76
2023/05/16 09:35:58;;;;;;;16.90;12.75;;;;;;;;;;5077877;28;20380;-77
2023/05/16 09:38:27;;;;;;;16.88;11.85;;;;;;;;;;5078586;28;20052;-77
2023/05/16 09:40:53;;;;;;;17.70;12.93;;;;;;;;;;5082138;28;20094;-78
2023/05/16 09:43:26;;;;;;;16.60;12.68;;;;;;;;;;5082352;28;20136;-78
2023/05/16 09:45:54;;;;;;;15.18;12.07;;;;;;;;;;5082064;28;20053;-78
2023/05/16 09:48:22;;;;;;;16.83;13.50;;;;;;;;;;5081643;28;20064;-78
2023/05/16 09:50:51;;;;;;;16.63;12.18;;;;;;;;;;5081411;28;20040;-78
2023/05/16 09:53:18;;;;;;;15.18;11.52;;;;;;;;;;5083458;28;20044;-78
2023/05/16 09:55:46;;;;;;;13.77;11.30;;;;;;;;;;5096654;28;20052;-78
2023/05/16 09:58:18;;;;;;;14.90;10.90;;;;;;;;;;5082882;28;20127;-79
2023/05/16 10:00:45;;;;;;;14.98;12.35;;;;;;;;;;5075896;28;20048;-77
2023/05/16 10:03:13;;;;;;;13.63;11.73;;;;;;;;;;5075520;28;20044;-79
2023/05/16 10:05:40;;;;;;;14.52;12.27;;;;;;;;;;5076326;28;20127;-77
2023/05/16 10:08:08;;;;;;;13.90;11.45;;;;;;;;;;5076498;28;20068;-77
2023/05/16 10:10:38;;;;;;;16.13;11.50;;;;;;;;;;5076524;28;20052;-77
2023/05/16 10:13:08;;;;;;;15.25;12.13;;;;;;;;;;5075302;28;20041;-77
2023/05/16 10:15:37;;;;;;;16.17;12.60;;;;;;;;;;5077785;28;20127;-77
2023/05/16 10:18:06;;;;;;;14.20;12.05;;;;;;;;;;5075933;28;20131;-77
2023/05/16 10:20:33;;;;;;;14.25;11.73;;;;;;;;;;5074781;28;20518;-77
2023/05/16 10:23:02;;;;;;;15.68;13.38;;;;;;;;;;5075299;28;20131;-76
2023/05/16 10:25:32;;;;;;;16.83;13.23;;;;;;;;;;5075137;28;20139;-77
2023/05/16 10:27:59;;;;;;;17.60;13.23;;;;;;;;;;5085174;22;20410;-78
2023/05/16 10:30:27;;;;;;;16.30;12.95;;;;;;;;;;5075608;28;20159;-77
2023/05/16 10:32:56;;;;;;;14.68;12.55;;;;;;;;;;5074705;28;20052;-77
2023/05/16 10:35:23;;;;;;;16.52;14.02;;;;;;;;;;5075027;28;20044;-78
2023/05/16 10:37:51;;;;;;;16.23;12.98;;;;;;;;;;5074728;28;20131;-78
2023/05/16 10:40:18;;;;;;;15.57;13.10;;;;;;;;;;5075248;28;20055;-76
2023/05/16 10:42:55;;;;;;;19.25;15.25;;;;;;;;;;5074922;28;20044;-78
2023/05/16 10:45:23;;;;;;;18.88;14.82;;;;;;;;;;5075045;28;20131;-78
2023/05/16 10:47:55;;;;;;;17.50;13.80;;;;;;;;;;5074783;28;20084;-77
2023/05/16 10:50:35;;;;;;;17.05;14.32;;;;;;;;;;5075206;28;20048;-78
2023/05/16 10:53:16;;;;;;;17.17;14.05;;;;;;;;;;5074493;28;20119;-77
2023/05/16 10:55:50;;;;;;;18.23;14.13;;;;;;;;;;5074783;28;20123;-78
2023/05/16 10:58:24;;;;;;;18.00;14.57;;;;;;;;;;5075769;28;20044;-78
2023/05/16 11:01:17;;;;;;;18.25;14.50;;;;;;;;;;5076833;28;20044;-76
2023/05/16 11:04:09;;;;;;;17.20;13.52;;;;;;;;;;5076982;28;20135;-78
2023/05/16 11:06:45;;;;;;;19.15;15.10;;;;;;;;;;5075467;28;20573;-77
2023/05/16 11:09:27;;;;;;;19.23;13.30;;;;;;;;;;5074550;28;20059;-77
2023/05/16 11:11:57;;;;;;;18.45;14.63;;;;;;;;;;5074503;28;20082;-77
2023/05/16 11:14:27;;;;;;;19.42;14.85;;;;;;;;;;5074228;28;20047;-77
2023/05/16 11:17:01;;;;;;;20.10;15.18;;;;;;;;;;5074676;28;20044;-78
2023/05/16 11:19:35;;;;;;;20.60;16.17;;;;;;;;;;5074476;28;20521;-78
2023/05/16 11:22:09;;;;;;;19.50;14.73;;;;;;;;;;5074133;28;20131;-77
2023/05/16 11:24:37;;;;;;;18.38;13.80;;;;;;;;;;5074267;28;20120;-77
2023/05/16 11:27:04;;;;;;;19.98;14.10;;;;;;;;;;5074704;28;20056;-77
2023/05/16 11:29:32;;;;;;;19.15;14.60;;;;;;;;;;5076143;28;20140;-76
2023/05/16 11:31:59;;;;;;;18.73;14.85;;;;;;;;;;5085822;28;20044;-76
2023/05/16 11:34:26;;;;;;;19.63;15.48;;;;;;;;;;5096458;28;20031;-78
2023/05/16 11:36:55;;;;;;;18.00;13.80;;;;;;;;;;5083440;28;20084;-77
2023/05/16 11:39:23;;;;;;;19.25;15.20;;;;;;;;;;5081382;28;20070;-78
2023/05/16 11:41:50;;;;;;;19.40;14.55;;;;;;;;;;5078908;28;20041;-77
2023/05/16 11:44:17;;;;;;;17.58;14.20;;;;;;;;;;5081083;28;20071;-78
2023/05/16 11:46:44;;;;;;;21.50;15.38;;;;;;;;;;5077364;28;20052;-77
2023/05/16 11:49:12;;;;;;;19.13;15.80;;;;;;;;;;5075858;28;20060;-78
2023/05/16 11:51:39;;;;;;;19.10;14.98;;;;;;;;;;5076949;28;20045;-78
2023/05/16 11:54:08;;;;;;;20.85;16.30;;;;;;;;;;5078699;28;20048;-76
2023/05/16 11:56:35;;;;;;;18.95;15.13;;;;;;;;;;5075115;28;20053;-78
2023/05/16 11:59:02;;;;;;;22.30;15.88;;;;;;;;;;5075295;28;20051;-77
2023/05/16 12:01:33;;;;;;;18.95;15.15;;;;;;;;;;5076130;28;20574;-77
2023/05/16 12:03:59;;;;;;;;;;;;;;;;;;5077123;28;20575;-77
2023/05/16 12:06:28;;;;;;;18.98;15.23;;;;;;;;;;5076465;28;19920;-78
2023/05/16 12:08:54;;;;;;;21.50;16.92;;;;;;;;;;5074805;28;20048;-76
2023/05/16 12:11:24;;;;;;;19.48;16.13;;;;;;;;;;5075197;28;20070;-77
2023/05/16 12:13:51;;;;;;;21.40;16.70;;;;;;;;;;5074647;28;20055;-77
2023/05/16 12:16:18;;;;;;;21.55;17.23;;;;;;;;;;5079444;28;20047;-77
2023/05/16 12:18:45;;;;;;;20.10;16.02;;;;;;;;;;5080251;28;20101;-77
2023/05/16 12:21:13;;;;;;;18.55;14.65;;;;;;;;;;5083042;28;20083;-77
2023/05/16 12:23:42;;;;;;;19.60;15.63;;;;;;;;;;5084995;28;20108;-77
2023/05/16 12:26:08;;;;;;;18.55;15.18;;;;;;;;;;5084949;28;20068;-78
2023/05/16 12:28:38;;;;;;;17.63;14.68;;;;;;;;;;5086860;28;20487;-77
2023/05/16 12:31:12;;;;;;;19.45;15.80;;;;;;;;;;5082323;28;20075;-78
2023/05/16 12:33:39;;;;;;;18.75;15.25;;;;;;;;;;5079768;28;20048;-76
2023/05/16 12:36:14;;;;;;;18.75;15.73;;;;;;;;;;5079538;28;20486;-76
2023/05/16 12:38:41;;;;;;;19.95;17.25;;;;;;;;;;5080893;28;20076;-77
2023/05/16 12:41:09;;;;;;;21.70;16.35;;;;;;;;;;5080434;28;20479;-77
2023/05/16 12:43:37;;;;;;;16.48;14.38;;;;;;;;;;5081360;28;20486;-77
2023/05/16 12:46:11;;;;;;;20.80;16.88;;;;;;;;;;5086204;28;20045;-77
2023/05/16 12:48:38;;;;;;;19.42;15.55;;;;;;;;;;5082445;28;20094;-77
2023/05/16 12:51:13;;;;;;;18.35;15.10;;;;;;;;;;5079817;28;20048;-77
2023/05/16 12:53:44;;;;;;;19.10;15.38;;;;;;;;;;5081933;28;20131;-77
2023/05/16 12:56:11;;;;;;;;;;;;;;;;;;5079004;28;20048;-78
2023/05/16 12:58:40;;;;;;;20.38;15.27;;;;;;;;;;5079292;28;19920;-78
2023/05/16 13:01:06;;;;;;;19.10;15.40;;;;;;;;;;5078468;28;20048;-78
2023/05/16 13:03:34;;;;;;;18.88;15.55;;;;;;;;;;5063825;28;20055;-78
2023/05/16 13:06:02;;;;;;;19.10;15.70;;;;;;;;;;5060826;28;20456;-79
2023/05/16 13:08:29;;;;;;;18.63;15.63;;;;;;;;;;5058200;28;20049;-76
2023/05/16 13:10:56;;;;;;;18.35;15.75;;;;;;;;;;5060666;28;20079;-77
2023/05/16 13:13:23;;;;;;;18.38;15.27;;;;;;;;;;5059408;28;20044;-78
2023/05/16 13:15:51;;;;;;;20.08;16.83;;;;;;;;;;5061610;28;20072;-77
2023/05/16 13:18:18;;;;;;;19.10;15.48;;;;;;;;;;5058243;28;20049;-77
2023/05/16 13:20:45;;;;;;;18.55;15.48;;;;;;;;;;5058597;28;20052;-78
2023/05/16 13:23:12;;;;;;;19.17;15.73;;;;;;;;;;5061938;28;20086;-77
2023/05/16 13:25:39;;;;;;;15.32;13.18;;;;;;;;;;5057349;28;20041;-78
2023/05/16 13:28:05;;;;;;;14.55;11.57;;;;;;;;;;5060701;28;20045;-78
2023/05/16 13:30:32;;;;;;;13.60;11.20;;;;;;;;;;5059311;28;20048;-76
2023/05/16 13:33:00;;;;;;;12.43;10.88;;;;;;;;;;5056820;28;20128;-77
2023/05/16 13:35:27;;;;;;;17.85;12.55;;;;;;;;;;5059521;28;20083;-80
2023/05/16 13:37:54;;;;;;;15.13;11.65;;;;;;;;;;5058117;28;20072;-77
2023/05/16 13:40:20;;;;;;;13.98;12.07;;;;;;;;;;5058229;28;20048;-77
2023/05/16 13:42:48;;;;;;;15.63;11.93;;;;;;;;;;5055987;28;20080;-77
2023/05/16 13:45:14;;;;;;;13.43;11.23;;;;;;;;;;5057099;28;20101;-78
2023/05/16 13:47:41;;;;;;;12.25;10.18;;;;;;;;;;5060840;28;20073;-77
2023/05/16 13:50:11;;;;;;;10.85;8.93;;;;;;;;;;5058415;28;20570;-77
2023/05/16 13:52:39;;;;;;;12.48;9.27;;;;;;;;;;5058109;28;20053;-78
2023/05/16 13:55:07;;;;;;;11.15;8.27;;;;;;;;;;5056627;28;20049;-77
2023/05/16 13:57:33;;;;;;;10.57;8.30;;;;;;;;;;5057219;28;20075;-78
2023/05/16 14:00:00;;;;;;;9.40;7.25;;;;;;;;;;5058982;28;20522;-78
2023/05/16 14:02:27;;;;;;;10.60;7.32;;;;;;;;;;5058971;28;20044;-77
2023/05/16 14:04:53;;;;;;;8.57;7.15;;;;;;;;;;5059609;28;20053;-77
2023/05/16 14:07:21;;;;;;;8.70;6.85;;;;;;;;;;5060210;28;20499;-77
2023/05/16 14:09:48;;;;;;;9.10;7.93;;;;;;;;;;5058042;28;20512;-77
2023/05/16 14:12:15;;;;;;;8.18;6.57;;;;;;;;;;5059062;28;20045;-77
2023/05/16 14:14:41;;;;;;;9.23;7.13;;;;;;;;;;5059354;28;20101;-76
2023/05/16 14:17:08;;;;;;;15.25;8.05;;;;;;;;;;5068443;28;20081;-77
2023/05/16 14:19:35;;;;;;;8.77;7.55;;;;;;;;;;5065642;28;20044;-78
2023/05/16 14:22:02;;;;;;;9.90;7.35;;;;;;;;;;5068296;28;20041;-78
2023/05/16 14:24:30;;;;;;;10.85;8.02;;;;;;;;;;5065188;28;20049;-79
2023/05/16 14:26:56;;;;;;;8.65;7.65;;;;;;;;;;5059609;28;20072;-78
2023/05/16 14:29:24;;;;;;;9.65;7.25;;;;;;;;;;5059123;28;20048;-77
2023/05/16 14:31:50;;;;;;;9.88;7.70;;;;;;;;;;5075040;28;20064;-77
2023/05/16 14:34:17;;;;;;;9.85;7.35;;;;;;;;;;5077377;28;20051;-78